sensor_id;sensor_type;location;lat;lon;timestamp;temperature;humidity
20345;DHT22;10330;48.816;9.278;2023-12-22T00:16:07;7.90;99.90
20345;DHT22;10330;48.816;9.278;2023-12-22T00:30:32;7.80;99.90
20345;DHT22;10330;48.816;9.278;2023-12-22T00:37:18;7.90;99.90
20345;DHT22;10330;48.816;9.278;2023-12-22T00:39:47;7.80;99.90
20345;DHT22;10330;48.816;9.278;2023-12-22T00:42:13;7.70;99.90
20345;DHT22;10330;48.816;9.278;2023-12-22T00:44:39;7.70;99.90
20345;DHT22;10330;48.816;9.278;2023-12-22T00:47:06;7.60;99.90
20345;DHT22;10330;48.816;9.278;2023-12-22T00:49:33;7.60;99.90
20345;DHT22;10330;48.816;9.278;2023-12-22T00:51:59;7.50;99.90
20345;DHT22;10330;48.816;9.278;2023-12-22T00:54:25;7.60;99.90
20345;DHT22;10330;48.816;9.278;2023-12-22T00:56:52;7.60;99.90
20345;DHT22;10330;48.816;9.278;2023-12-22T00:59:18;7.50;99.90
20345;DHT22;10330;48.816;9.278;2023-12-22T01:01:45;7.20;99.90
20345;DHT22;10330;48.816;9.278;2023-12-22T01:04:11;7.00;99.90
20345;DHT22;10330;48.816;9.278;2023-12-22T01:06:38;6.90;99.90
20345;DHT22;10330;48.816;9.278;2023-12-22T01:09:05;6.70;99.90
20345;DHT22;10330;48.816;9.278;2023-12-22T01:11:31;6.50;99.90
20345;DHT22;10330;48.816;9.278;2023-12-22T01:13:58;6.50;99.90
20345;DHT22;10330;48.816;9.278;2023-12-22T01:16:24;6.50;99.90
20345;DHT22;10330;48.816;9.278;2023-12-22T01:18:51;6.40;99.90
20345;DHT22;10330;48.816;9.278;2023-12-22T01:21:17;6.70;99.90
20345;DHT22;10330;48.816;9.278;2023-12-22T01:23:44;6.50;99.90
20345;DHT22;10330;48.816;9.278;2023-12-22T01:26:10;6.30;99.90
20345;DHT22;10330;48.816;9.278;2023-12-22T01:28:37;6.30;99.90
20345;DHT22;10330;48.816;9.278;2023-12-22T01:31:03;6.40;99.90
20345;DHT22;10330;48.816;9.278;2023-12-22T01:33:30;6.50;99.90
20345;DHT22;10330;48.816;9.278;2023-12-22T01:35:56;6.50;99.90
20345;DHT22;10330;48.816;9.278;2023-12-22T01:38:23;6.80;99.90
20345;DHT22;10330;48.816;9.278;2023-12-22T01:40:49;6.80;99.90
20345;DHT22;10330;48.816;9.278;2023-12-22T01:43:15;7.00;99.90
20345;DHT22;10330;48.816;9.278;2023-12-22T01:45:54;7.40;99.90
20345;DHT22;10330;48.816;9.278;2023-12-22T01:48:22;7.60;99.90
20345;DHT22;10330;48.816;9.278;2023-12-22T01:50:53;7.60;99.90
20345;DHT22;10330;48.816;9.278;2023-12-22T01:53:21;7.70;99.90
20345;DHT22;10330;48.816;9.278;2023-12-22T01:55:50;7.90;99.90
20345;DHT22;10330;48.816;9.278;2023-12-22T01:58:19;7.90;99.90
20345;DHT22;10330;48.816;9.278;2023-12-22T02:01:22;7.90;99.90
20345;DHT22;10330;48.816;9.278;2023-12-22T02:03:58;7.90;99.90
20345;DHT22;10330;48.816;9.278;2023-12-22T02:07:27;7.90;99.90
20345;DHT22;10330;48.816;9.278;2023-12-22T02:09:54;7.90;99.90
20345;DHT22;10330;48.816;9.278;2023-12-22T02:12:20;7.90;99.90
20345;DHT22;10330;48.816;9.278;2023-12-22T02:15:24;8.00;99.90
20345;DHT22;10330;48.816;9.278;2023-12-22T04:21:05;6.50;99.90
20345;DHT22;10330;48.816;9.278;2023-12-22T06:18:34;8.10;99.90
20345;DHT22;10330;48.816;9.278;2023-12-22T06:21:00;8.10;99.90
20345;DHT22;10330;48.816;9.278;2023-12-22T06:23:28;8.20;99.90
20345;DHT22;10330;48.816;9.278;2023-12-22T06:25:56;8.20;99.90
20345;DHT22;10330;48.816;9.278;2023-12-22T06:28:22;8.10;99.90
20345;DHT22;10330;48.816;9.278;2023-12-22T06:30:48;8.10;99.90
20345;DHT22;10330;48.816;9.278;2023-12-22T06:33:14;8.10;99.90
20345;DHT22;10330;48.816;9.278;2023-12-22T06:35:40;8.10;99.90
20345;DHT22;10330;48.816;9.278;2023-12-22T06:38:07;8.10;99.90
20345;DHT22;10330;48.816;9.278;2023-12-22T06:40:37;8.10;99.90
20345;DHT22;10330;48.816;9.278;2023-12-22T06:43:04;8.20;99.90
20345;DHT22;10330;48.816;9.278;2023-12-22T06:45:30;8.10;99.90
20345;DHT22;10330;48.816;9.278;2023-12-22T06:47:56;8.10;99.90
20345;DHT22;10330;48.816;9.278;2023-12-22T06:50:22;8.10;99.90
20345;DHT22;10330;48.816;9.278;2023-12-22T06:52:49;8.10;99.90
20345;DHT22;10330;48.816;9.278;2023-12-22T06:55:15;8.20;99.90
20345;DHT22;10330;48.816;9.278;2023-12-22T06:57:42;8.10;99.90
20345;DHT22;10330;48.816;9.278;2023-12-22T07:00:09;8.20;99.90
20345;DHT22;10330;48.816;9.278;2023-12-22T07:02:35;8.20;99.90
20345;DHT22;10330;48.816;9.278;2023-12-22T07:05:03;8.20;99.90
20345;DHT22;10330;48.816;9.278;2023-12-22T07:07:49;8.20;99.90
20345;DHT22;10330;48.816;9.278;2023-12-22T07:10:15;8.10;99.90
20345;DHT22;10330;48.816;9.278;2023-12-22T07:12:42;8.10;99.90
20345;DHT22;10330;48.816;9.278;2023-12-22T07:15:08;8.10;99.90
20345;DHT22;10330;48.816;9.278;2023-12-22T07:17:35;8.10;99.90
20345;DHT22;10330;48.816;9.278;2023-12-22T07:20:01;8.10;99.90
20345;DHT22;10330;48.816;9.278;2023-12-22T07:22:29;8.00;99.90
20345;DHT22;10330;48.816;9.278;2023-12-22T07:24:55;8.10;99.90
20345;DHT22;10330;48.816;9.278;2023-12-22T07:27:21;8.10;99.90
20345;DHT22;10330;48.816;9.278;2023-12-22T07:29:47;8.00;99.90
20345;DHT22;10330;48.816;9.278;2023-12-22T07:32:14;8.00;99.90
20345;DHT22;10330;48.816;9.278;2023-12-22T07:34:40;8.10;99.90
20345;DHT22;10330;48.816;9.278;2023-12-22T07:37:06;8.10;99.90
20345;DHT22;10330;48.816;9.278;2023-12-22T07:39:32;8.00;99.90
20345;DHT22;10330;48.816;9.278;2023-12-22T07:41:58;8.10;99.90
20345;DHT22;10330;48.816;9.278;2023-12-22T07:44:24;8.00;99.90
20345;DHT22;10330;48.816;9.278;2023-12-22T07:47:00;8.10;99.90
20345;DHT22;10330;48.816;9.278;2023-12-22T07:49:26;8.10;99.90
20345;DHT22;10330;48.816;9.278;2023-12-22T07:51:53;8.10;99.90
20345;DHT22;10330;48.816;9.278;2023-12-22T07:54:19;8.10;99.90
20345;DHT22;10330;48.816;9.278;2023-12-22T07:56:45;8.10;99.90
20345;DHT22;10330;48.816;9.278;2023-12-22T07:59:12;8.20;99.90
20345;DHT22;10330;48.816;9.278;2023-12-22T08:01:38;8.10;99.90
20345;DHT22;10330;48.816;9.278;2023-12-22T08:04:04;8.10;99.90
20345;DHT22;10330;48.816;9.278;2023-12-22T08:06:30;8.10;99.90
20345;DHT22;10330;48.816;9.278;2023-12-22T08:08:56;8.00;99.90
20345;DHT22;10330;48.816;9.278;2023-12-22T08:11:23;7.70;99.90
20345;DHT22;10330;48.816;9.278;2023-12-22T08:13:51;7.50;99.90
20345;DHT22;10330;48.816;9.278;2023-12-22T08:16:17;7.60;99.90
20345;DHT22;10330;48.816;9.278;2023-12-22T08:18:43;7.30;99.90
20345;DHT22;10330;48.816;9.278;2023-12-22T08:21:09;7.30;99.90
20345;DHT22;10330;48.816;9.278;2023-12-22T08:23:36;7.20;99.90
20345;DHT22;10330;48.816;9.278;2023-12-22T08:26:02;7.10;99.90
20345;DHT22;10330;48.816;9.278;2023-12-22T08:28:31;7.00;99.90
20345;DHT22;10330;48.816;9.278;2023-12-22T08:30:57;7.00;99.90
20345;DHT22;10330;48.816;9.278;2023-12-22T08:33:23;6.90;99.90
20345;DHT22;10330;48.816;9.278;2023-12-22T08:35:50;6.90;99.90
20345;DHT22;10330;48.816;9.278;2023-12-22T08:38:16;6.90;99.90
20345;DHT22;10330;48.816;9.278;2023-12-22T08:40:43;6.90;99.90
20345;DHT22;10330;48.816;9.278;2023-12-22T08:43:09;6.80;99.90
20345;DHT22;10330;48.816;9.278;2023-12-22T08:45:35;6.80;99.90
20345;DHT22;10330;48.816;9.278;2023-12-22T08:48:01;6.90;99.90
20345;DHT22;10330;48.816;9.278;2023-12-22T08:50:28;6.90;99.90
20345;DHT22;10330;48.816;9.278;2023-12-22T08:52:54;6.90;99.90
20345;DHT22;10330;48.816;9.278;2023-12-22T08:55:20;6.90;99.90
20345;DHT22;10330;48.816;9.278;2023-12-22T08:57:46;7.00;99.90
20345;DHT22;10330;48.816;9.278;2023-12-22T09:00:13;7.10;99.90
20345;DHT22;10330;48.816;9.278;2023-12-22T09:02:40;7.20;99.90
20345;DHT22;10330;48.816;9.278;2023-12-22T09:05:07;7.30;99.90
20345;DHT22;10330;48.816;9.278;2023-12-22T09:07:33;7.50;99.90
20345;DHT22;10330;48.816;9.278;2023-12-22T09:09:59;7.50;99.90
20345;DHT22;10330;48.816;9.278;2023-12-22T09:12:25;7.50;99.90
20345;DHT22;10330;48.816;9.278;2023-12-22T09:14:51;7.60;99.90
20345;DHT22;10330;48.816;9.278;2023-12-22T09:17:17;7.70;99.90
20345;DHT22;10330;48.816;9.278;2023-12-22T09:19:44;7.70;99.90
20345;DHT22;10330;48.816;9.278;2023-12-22T09:22:10;7.80;99.90
20345;DHT22;10330;48.816;9.278;2023-12-22T09:24:36;7.90;99.90
20345;DHT22;10330;48.816;9.278;2023-12-22T09:27:02;8.00;99.90
20345;DHT22;10330;48.816;9.278;2023-12-22T09:29:30;8.00;99.90
20345;DHT22;10330;48.816;9.278;2023-12-22T09:31:59;8.00;99.90
20345;DHT22;10330;48.816;9.278;2023-12-22T09:34:26;8.10;99.90
20345;DHT22;10330;48.816;9.278;2023-12-22T09:37:22;8.00;99.90
20345;DHT22;10330;48.816;9.278;2023-12-22T09:39:50;8.00;99.90
20345;DHT22;10330;48.816;9.278;2023-12-22T09:42:21;8.10;99.90
20345;DHT22;10330;48.816;9.278;2023-12-22T09:44:49;8.10;99.90
20345;DHT22;10330;48.816;9.278;2023-12-22T09:47:17;8.10;99.90
20345;DHT22;10330;48.816;9.278;2023-12-22T09:49:44;8.20;99.90
20345;DHT22;10330;48.816;9.278;2023-12-22T09:52:13;8.20;99.90
20345;DHT22;10330;48.816;9.278;2023-12-22T09:54:40;8.20;99.90
20345;DHT22;10330;48.816;9.278;2023-12-22T09:57:08;8.20;99.90
20345;DHT22;10330;48.816;9.278;2023-12-22T09:59:35;8.30;99.90
20345;DHT22;10330;48.816;9.278;2023-12-22T10:02:02;8.30;99.90
20345;DHT22;10330;48.816;9.278;2023-12-22T10:04:32;8.30;99.90
20345;DHT22;10330;48.816;9.278;2023-12-22T10:07:01;8.30;99.90
20345;DHT22;10330;48.816;9.278;2023-12-22T10:09:30;8.30;99.90
20345;DHT22;10330;48.816;9.278;2023-12-22T10:11:57;8.40;99.90
20345;DHT22;10330;48.816;9.278;2023-12-22T10:14:24;8.40;99.90
20345;DHT22;10330;48.816;9.278;2023-12-22T10:16:52;8.40;99.90
20345;DHT22;10330;48.816;9.278;2023-12-22T10:19:19;8.40;99.90
20345;DHT22;10330;48.816;9.278;2023-12-22T10:21:49;8.40;99.90
20345;DHT22;10330;48.816;9.278;2023-12-22T10:24:53;8.50;99.90
20345;DHT22;10330;48.816;9.278;2023-12-22T10:27:20;8.50;99.90
20345;DHT22;10330;48.816;9.278;2023-12-22T10:29:58;8.50;99.90
20345;DHT22;10330;48.816;9.278;2023-12-22T10:32:24;8.50;99.90
20345;DHT22;10330;48.816;9.278;2023-12-22T10:34:51;8.50;99.90
20345;DHT22;10330;48.816;9.278;2023-12-22T10:37:18;8.50;99.90
20345;DHT22;10330;48.816;9.278;2023-12-22T10:39:45;8.60;99.90
20345;DHT22;10330;48.816;9.278;2023-12-22T10:42:15;8.60;99.90
20345;DHT22;10330;48.816;9.278;2023-12-22T10:44:41;8.60;99.90
20345;DHT22;10330;48.816;9.278;2023-12-22T10:47:08;8.60;99.90
20345;DHT22;10330;48.816;9.278;2023-12-22T10:49:36;8.60;99.90
20345;DHT22;10330;48.816;9.278;2023-12-22T10:52:03;8.70;99.90
20345;DHT22;10330;48.816;9.278;2023-12-22T10:54:30;8.70;99.90
20345;DHT22;10330;48.816;9.278;2023-12-22T10:57:00;8.70;99.90
20345;DHT22;10330;48.816;9.278;2023-12-22T10:59:29;8.70;99.90
20345;DHT22;10330;48.816;9.278;2023-12-22T11:01:58;8.70;99.90
20345;DHT22;10330;48.816;9.278;2023-12-22T11:04:29;8.70;99.90
20345;DHT22;10330;48.816;9.278;2023-12-22T11:06:58;8.60;99.90
20345;DHT22;10330;48.816;9.278;2023-12-22T11:09:26;8.70;99.90
20345;DHT22;10330;48.816;9.278;2023-12-22T11:11:57;8.70;99.90
20345;DHT22;10330;48.816;9.278;2023-12-22T11:14:24;8.60;99.90
20345;DHT22;10330;48.816;9.278;2023-12-22T11:16:55;8.70;99.90
20345;DHT22;10330;48.816;9.278;2023-12-22T11:19:23;8.60;99.90
20345;DHT22;10330;48.816;9.278;2023-12-22T11:21:50;8.60;99.90
20345;DHT22;10330;48.816;9.278;2023-12-22T11:24:18;8.60;99.90
20345;DHT22;10330;48.816;9.278;2023-12-22T11:26:46;8.60;99.90
20345;DHT22;10330;48.816;9.278;2023-12-22T11:29:14;8.60;99.90
20345;DHT22;10330;48.816;9.278;2023-12-22T11:31:45;8.50;99.90
20345;DHT22;10330;48.816;9.278;2023-12-22T11:34:14;8.50;99.90
20345;DHT22;10330;48.816;9.278;2023-12-22T11:36:43;8.50;99.90
20345;DHT22;10330;48.816;9.278;2023-12-22T11:39:12;8.40;99.90
20345;DHT22;10330;48.816;9.278;2023-12-22T11:41:40;8.40;99.90
20345;DHT22;10330;48.816;9.278;2023-12-22T11:44:07;8.40;99.90
20345;DHT22;10330;48.816;9.278;2023-12-22T11:46:33;8.40;99.90
20345;DHT22;10330;48.816;9.278;2023-12-22T11:49:00;8.40;99.90
20345;DHT22;10330;48.816;9.278;2023-12-22T11:51:32;8.40;99.90
20345;DHT22;10330;48.816;9.278;2023-12-22T11:54:00;8.40;99.90
20345;DHT22;10330;48.816;9.278;2023-12-22T11:56:29;8.30;99.90
20345;DHT22;10330;48.816;9.278;2023-12-22T11:58:55;8.20;99.90
20345;DHT22;10330;48.816;9.278;2023-12-22T12:01:25;8.20;99.90
20345;DHT22;10330;48.816;9.278;2023-12-22T12:04:00;8.10;99.90
20345;DHT22;10330;48.816;9.278;2023-12-22T12:09:03;8.00;99.90
20345;DHT22;10330;48.816;9.278;2023-12-22T12:14:15;7.90;99.90
20345;DHT22;10330;48.816;9.278;2023-12-22T12:19:20;7.90;99.90
20345;DHT22;10330;48.816;9.278;2023-12-22T12:21:50;8.00;99.90
20345;DHT22;10330;48.816;9.278;2023-12-22T12:24:17;7.90;99.90
20345;DHT22;10330;48.816;9.278;2023-12-22T12:26:43;7.90;99.90
20345;DHT22;10330;48.816;9.278;2023-12-22T12:29:10;8.00;99.90
20345;DHT22;10330;48.816;9.278;2023-12-22T12:31:37;8.00;99.90
20345;DHT22;10330;48.816;9.278;2023-12-22T12:34:10;8.00;99.90
20345;DHT22;10330;48.816;9.278;2023-12-22T12:36:38;8.00;99.90
20345;DHT22;10330;48.816;9.278;2023-12-22T12:39:08;8.00;99.90
20345;DHT22;10330;48.816;9.278;2023-12-22T12:41:40;8.00;99.90
20345;DHT22;10330;48.816;9.278;2023-12-22T12:44:07;8.00;99.90
20345;DHT22;10330;48.816;9.278;2023-12-22T12:46:35;8.00;99.90
20345;DHT22;10330;48.816;9.278;2023-12-22T12:49:06;8.00;99.90
20345;DHT22;10330;48.816;9.278;2023-12-22T12:51:41;8.00;99.90
20345;DHT22;10330;48.816;9.278;2023-12-22T12:54:14;8.00;99.90
20345;DHT22;10330;48.816;9.278;2023-12-22T12:56:41;8.00;99.90
20345;DHT22;10330;48.816;9.278;2023-12-22T12:59:09;8.00;99.90
20345;DHT22;10330;48.816;9.278;2023-12-22T13:01:43;8.00;99.90
20345;DHT22;10330;48.816;9.278;2023-12-22T13:04:10;8.00;99.90
20345;DHT22;10330;48.816;9.278;2023-12-22T13:09:10;8.10;99.90
20345;DHT22;10330;48.816;9.278;2023-12-22T13:11:37;8.10;99.90
20345;DHT22;10330;48.816;9.278;2023-12-22T13:14:03;8.10;99.90
20345;DHT22;10330;48.816;9.278;2023-12-22T13:16:33;8.20;99.90
20345;DHT22;10330;48.816;9.278;2023-12-22T13:19:01;8.20;99.90
20345;DHT22;10330;48.816;9.278;2023-12-22T13:21:28;8.20;99.90
20345;DHT22;10330;48.816;9.278;2023-12-22T13:24:15;8.30;99.90
20345;DHT22;10330;48.816;9.278;2023-12-22T13:26:45;8.30;99.90
20345;DHT22;10330;48.816;9.278;2023-12-22T13:29:12;8.40;99.90
20345;DHT22;10330;48.816;9.278;2023-12-22T13:31:40;8.50;99.90
20345;DHT22;10330;48.816;9.278;2023-12-22T13:34:09;8.70;99.90
20345;DHT22;10330;48.816;9.278;2023-12-22T13:36:36;9.00;99.90
20345;DHT22;10330;48.816;9.278;2023-12-22T13:39:06;9.10;99.90
20345;DHT22;10330;48.816;9.278;2023-12-22T13:41:42;9.20;99.90
20345;DHT22;10330;48.816;9.278;2023-12-22T13:44:12;9.20;99.90
20345;DHT22;10330;48.816;9.278;2023-12-22T13:46:41;9.40;99.90
20345;DHT22;10330;48.816;9.278;2023-12-22T13:49:09;9.40;99.90
20345;DHT22;10330;48.816;9.278;2023-12-22T13:51:45;9.50;99.90
20345;DHT22;10330;48.816;9.278;2023-12-22T13:54:13;9.50;99.90
20345;DHT22;10330;48.816;9.278;2023-12-22T13:56:39;9.50;99.90
20345;DHT22;10330;48.816;9.278;2023-12-22T13:59:07;9.70;99.90
20345;DHT22;10330;48.816;9.278;2023-12-22T14:01:33;9.70;99.90
20345;DHT22;10330;48.816;9.278;2023-12-22T14:04:00;9.70;99.90
20345;DHT22;10330;48.816;9.278;2023-12-22T14:06:26;9.70;99.90
20345;DHT22;10330;48.816;9.278;2023-12-22T14:08:53;9.80;99.90
20345;DHT22;10330;48.816;9.278;2023-12-22T14:11:20;9.80;99.90
20345;DHT22;10330;48.816;9.278;2023-12-22T14:13:46;9.80;99.90
20345;DHT22;10330;48.816;9.278;2023-12-22T14:16:12;9.80;99.90
20345;DHT22;10330;48.816;9.278;2023-12-22T14:18:39;9.80;99.90
20345;DHT22;10330;48.816;9.278;2023-12-22T14:21:05;9.80;99.90
20345;DHT22;10330;48.816;9.278;2023-12-22T14:23:32;9.80;99.90
20345;DHT22;10330;48.816;9.278;2023-12-22T14:25:58;9.80;99.90
20345;DHT22;10330;48.816;9.278;2023-12-22T14:28:24;9.90;99.90
20345;DHT22;10330;48.816;9.278;2023-12-22T14:30:50;9.80;99.90
20345;DHT22;10330;48.816;9.278;2023-12-22T14:33:17;9.90;99.90
20345;DHT22;10330;48.816;9.278;2023-12-22T14:35:43;9.90;99.90
20345;DHT22;10330;48.816;9.278;2023-12-22T14:38:09;9.90;99.90
20345;DHT22;10330;48.816;9.278;2023-12-22T14:40:38;9.90;99.90
20345;DHT22;10330;48.816;9.278;2023-12-22T14:43:04;10.00;99.90
20345;DHT22;10330;48.816;9.278;2023-12-22T14:45:31;9.80;99.90
20345;DHT22;10330;48.816;9.278;2023-12-22T14:47:57;9.90;99.90
20345;DHT22;10330;48.816;9.278;2023-12-22T14:50:23;10.00;99.90
20345;DHT22;10330;48.816;9.278;2023-12-22T14:52:49;10.00;99.90
20345;DHT22;10330;48.816;9.278;2023-12-22T14:55:15;10.00;99.90
20345;DHT22;10330;48.816;9.278;2023-12-22T14:57:43;9.90;99.90
20345;DHT22;10330;48.816;9.278;2023-12-22T15:00:11;10.00;99.90
20345;DHT22;10330;48.816;9.278;2023-12-22T15:02:37;9.90;99.90
20345;DHT22;10330;48.816;9.278;2023-12-22T15:05:03;9.80;99.90
20345;DHT22;10330;48.816;9.278;2023-12-22T15:07:30;9.90;99.90
20345;DHT22;10330;48.816;9.278;2023-12-22T15:09:56;9.80;99.90
20345;DHT22;10330;48.816;9.278;2023-12-22T15:12:22;9.90;99.90
20345;DHT22;10330;48.816;9.278;2023-12-22T15:14:48;9.80;99.90
20345;DHT22;10330;48.816;9.278;2023-12-22T15:17:15;9.80;99.90
20345;DHT22;10330;48.816;9.278;2023-12-22T15:19:43;9.80;99.90
20345;DHT22;10330;48.816;9.278;2023-12-22T15:22:09;9.80;99.90
20345;DHT22;10330;48.816;9.278;2023-12-22T15:24:42;9.80;99.90
20345;DHT22;10330;48.816;9.278;2023-12-22T15:27:12;9.80;99.90
20345;DHT22;10330;48.816;9.278;2023-12-22T15:29:41;9.80;99.90
20345;DHT22;10330;48.816;9.278;2023-12-22T15:32:10;9.80;99.90
20345;DHT22;10330;48.816;9.278;2023-12-22T15:34:36;9.70;99.90
20345;DHT22;10330;48.816;9.278;2023-12-22T15:37:02;9.80;99.90
20345;DHT22;10330;48.816;9.278;2023-12-22T15:39:28;9.80;99.90
20345;DHT22;10330;48.816;9.278;2023-12-22T15:41:56;9.80;99.90
20345;DHT22;10330;48.816;9.278;2023-12-22T15:44:22;9.80;99.90
20345;DHT22;10330;48.816;9.278;2023-12-22T15:46:48;9.80;99.90
20345;DHT22;10330;48.816;9.278;2023-12-22T15:49:14;9.80;99.90
20345;DHT22;10330;48.816;9.278;2023-12-22T15:51:40;9.70;99.90
20345;DHT22;10330;48.816;9.278;2023-12-22T15:54:07;9.70;99.90
20345;DHT22;10330;48.816;9.278;2023-12-22T15:56:36;9.80;99.90
20345;DHT22;10330;48.816;9.278;2023-12-22T15:59:04;9.80;99.90
20345;DHT22;10330;48.816;9.278;2023-12-22T16:01:30;9.80;99.90
20345;DHT22;10330;48.816;9.278;2023-12-22T16:03:56;9.90;99.90
20345;DHT22;10330;48.816;9.278;2023-12-22T16:06:22;9.90;99.90
20345;DHT22;10330;48.816;9.278;2023-12-22T16:08:48;10.00;99.90
20345;DHT22;10330;48.816;9.278;2023-12-22T16:11:18;10.00;99.90
20345;DHT22;10330;48.816;9.278;2023-12-22T16:13:44;10.00;99.90
20345;DHT22;10330;48.816;9.278;2023-12-22T16:16:17;10.00;99.90
20345;DHT22;10330;48.816;9.278;2023-12-22T16:18:43;10.00;99.90
20345;DHT22;10330;48.816;9.278;2023-12-22T16:21:10;10.00;99.90
20345;DHT22;10330;48.816;9.278;2023-12-22T16:23:36;10.10;99.90
20345;DHT22;10330;48.816;9.278;2023-12-22T16:26:02;10.00;99.90
20345;DHT22;10330;48.816;9.278;2023-12-22T16:28:30;10.10;99.90
20345;DHT22;10330;48.816;9.278;2023-12-22T16:30:56;10.10;99.90
20345;DHT22;10330;48.816;9.278;2023-12-22T16:33:22;10.10;99.90
20345;DHT22;10330;48.816;9.278;2023-12-22T16:35:48;10.00;99.90
20345;DHT22;10330;48.816;9.278;2023-12-22T16:38:14;10.00;99.90
20345;DHT22;10330;48.816;9.278;2023-12-22T16:40:40;10.00;99.90
20345;DHT22;10330;48.816;9.278;2023-12-22T16:43:07;10.00;99.90
20345;DHT22;10330;48.816;9.278;2023-12-22T16:45:36;10.00;99.90
20345;DHT22;10330;48.816;9.278;2023-12-22T16:48:03;10.00;99.90
20345;DHT22;10330;48.816;9.278;2023-12-22T16:50:29;10.00;99.90
20345;DHT22;10330;48.816;9.278;2023-12-22T16:52:55;10.00;99.90
20345;DHT22;10330;48.816;9.278;2023-12-22T16:55:21;10.00;99.90
20345;DHT22;10330;48.816;9.278;2023-12-22T16:57:48;10.00;99.90
20345;DHT22;10330;48.816;9.278;2023-12-22T17:00:14;10.00;99.90
20345;DHT22;10330;48.816;9.278;2023-12-22T17:02:41;10.00;99.90
20345;DHT22;10330;48.816;9.278;2023-12-22T17:05:07;10.00;99.90
20345;DHT22;10330;48.816;9.278;2023-12-22T17:07:34;9.90;99.90
20345;DHT22;10330;48.816;9.278;2023-12-22T17:10:00;10.00;99.90
20345;DHT22;10330;48.816;9.278;2023-12-22T17:12:27;10.00;99.90
20345;DHT22;10330;48.816;9.278;2023-12-22T17:14:53;9.90;99.90
20345;DHT22;10330;48.816;9.278;2023-12-22T17:17:19;10.00;99.90
20345;DHT22;10330;48.816;9.278;2023-12-22T17:19:45;10.00;99.90
20345;DHT22;10330;48.816;9.278;2023-12-22T17:22:11;10.10;99.90
20345;DHT22;10330;48.816;9.278;2023-12-22T17:24:38;10.10;99.90
20345;DHT22;10330;48.816;9.278;2023-12-22T17:27:09;10.00;99.90
20345;DHT22;10330;48.816;9.278;2023-12-22T17:29:35;10.00;99.90
20345;DHT22;10330;48.816;9.278;2023-12-22T17:32:01;10.00;99.90
20345;DHT22;10330;48.816;9.278;2023-12-22T17:34:33;10.00;99.90
20345;DHT22;10330;48.816;9.278;2023-12-22T17:37:01;10.00;99.90
20345;DHT22;10330;48.816;9.278;2023-12-22T17:39:27;10.00;99.90
20345;DHT22;10330;48.816;9.278;2023-12-22T17:41:53;10.00;99.90
20345;DHT22;10330;48.816;9.278;2023-12-22T17:44:19;10.00;99.90
20345;DHT22;10330;48.816;9.278;2023-12-22T17:46:45;10.00;99.90
20345;DHT22;10330;48.816;9.278;2023-12-22T17:49:12;10.00;99.90
20345;DHT22;10330;48.816;9.278;2023-12-22T17:51:38;10.00;99.90
20345;DHT22;10330;48.816;9.278;2023-12-22T17:54:05;10.00;99.90
20345;DHT22;10330;48.816;9.278;2023-12-22T17:56:31;10.00;99.90
20345;DHT22;10330;48.816;9.278;2023-12-22T17:58:57;10.00;99.90
20345;DHT22;10330;48.816;9.278;2023-12-22T18:01:23;10.00;99.90
20345;DHT22;10330;48.816;9.278;2023-12-22T18:03:49;10.00;99.90
20345;DHT22;10330;48.816;9.278;2023-12-22T18:06:22;10.00;99.90
20345;DHT22;10330;48.816;9.278;2023-12-22T18:08:49;9.90;99.90
20345;DHT22;10330;48.816;9.278;2023-12-22T18:11:15;10.00;99.90
20345;DHT22;10330;48.816;9.278;2023-12-22T18:13:41;10.00;99.90
20345;DHT22;10330;48.816;9.278;2023-12-22T18:16:07;9.90;99.90
20345;DHT22;10330;48.816;9.278;2023-12-22T19:04:41;9.80;99.90
20345;DHT22;10330;48.816;9.278;2023-12-22T19:15:05;9.80;99.90
20345;DHT22;10330;48.816;9.278;2023-12-22T19:17:51;9.80;99.90
20345;DHT22;10330;48.816;9.278;2023-12-22T19:20:24;9.80;99.90
20345;DHT22;10330;48.816;9.278;2023-12-22T19:26:17;9.80;99.90
20345;DHT22;10330;48.816;9.278;2023-12-22T19:28:51;9.70;99.90
20345;DHT22;10330;48.816;9.278;2023-12-22T19:31:54;9.70;99.90
20345;DHT22;10330;48.816;9.278;2023-12-22T19:35:07;9.70;99.90
20345;DHT22;10330;48.816;9.278;2023-12-22T19:38:08;9.70;99.90
20345;DHT22;10330;48.816;9.278;2023-12-22T19:48:12;9.70;99.90
20345;DHT22;10330;48.816;9.278;2023-12-22T19:50:39;9.70;99.90
20345;DHT22;10330;48.816;9.278;2023-12-22T19:53:08;9.70;99.90
20345;DHT22;10330;48.816;9.278;2023-12-22T19:55:34;9.70;99.90
20345;DHT22;10330;48.816;9.278;2023-12-22T19:58:03;9.70;99.90
20345;DHT22;10330;48.816;9.278;2023-12-22T20:00:29;9.70;99.90
20345;DHT22;10330;48.816;9.278;2023-12-22T20:02:55;9.80;99.90
20345;DHT22;10330;48.816;9.278;2023-12-22T20:05:21;9.70;99.90
20345;DHT22;10330;48.816;9.278;2023-12-22T20:07:48;9.70;99.90
20345;DHT22;10330;48.816;9.278;2023-12-22T20:10:14;9.70;99.90
20345;DHT22;10330;48.816;9.278;2023-12-22T20:12:41;9.70;99.90
20345;DHT22;10330;48.816;9.278;2023-12-22T20:15:10;9.70;99.90
20345;DHT22;10330;48.816;9.278;2023-12-22T20:17:39;9.70;99.90
20345;DHT22;10330;48.816;9.278;2023-12-22T20:20:07;9.70;99.90
20345;DHT22;10330;48.816;9.278;2023-12-22T20:22:34;9.70;99.90
20345;DHT22;10330;48.816;9.278;2023-12-22T20:25:01;9.70;99.90
20345;DHT22;10330;48.816;9.278;2023-12-22T20:27:31;9.70;99.90
20345;DHT22;10330;48.816;9.278;2023-12-22T20:30:00;9.70;99.90
20345;DHT22;10330;48.816;9.278;2023-12-22T20:32:26;9.70;99.90
20345;DHT22;10330;48.816;9.278;2023-12-22T20:34:53;9.70;99.90
20345;DHT22;10330;48.816;9.278;2023-12-22T20:37:19;9.70;99.90
20345;DHT22;10330;48.816;9.278;2023-12-22T20:39:45;9.70;99.90
20345;DHT22;10330;48.816;9.278;2023-12-22T20:42:12;9.70;99.90
20345;DHT22;10330;48.816;9.278;2023-12-22T20:48:18;9.70;99.90
20345;DHT22;10330;48.816;9.278;2023-12-22T20:50:46;9.60;99.90
20345;DHT22;10330;48.816;9.278;2023-12-22T20:53:16;9.50;99.90
20345;DHT22;10330;48.816;9.278;2023-12-22T20:55:48;9.60;99.90
20345;DHT22;10330;48.816;9.278;2023-12-22T20:58:14;9.50;99.90
20345;DHT22;10330;48.816;9.278;2023-12-22T21:00:41;9.50;99.90
20345;DHT22;10330;48.816;9.278;2023-12-22T21:03:07;9.50;99.90
20345;DHT22;10330;48.816;9.278;2023-12-22T21:05:33;9.50;99.90
20345;DHT22;10330;48.816;9.278;2023-12-22T21:08:00;9.50;99.90
20345;DHT22;10330;48.816;9.278;2023-12-22T21:10:27;9.50;99.90
20345;DHT22;10330;48.816;9.278;2023-12-22T21:12:56;9.50;99.90
20345;DHT22;10330;48.816;9.278;2023-12-22T21:15:23;9.50;99.90
20345;DHT22;10330;48.816;9.278;2023-12-22T21:17:49;9.50;99.90
20345;DHT22;10330;48.816;9.278;2023-12-22T21:20:16;9.50;99.90
20345;DHT22;10330;48.816;9.278;2023-12-22T21:22:43;9.50;99.90
20345;DHT22;10330;48.816;9.278;2023-12-22T21:25:09;9.50;99.90
20345;DHT22;10330;48.816;9.278;2023-12-22T21:27:36;9.50;99.90
20345;DHT22;10330;48.816;9.278;2023-12-22T21:30:03;9.50;99.90
20345;DHT22;10330;48.816;9.278;2023-12-22T21:32:30;9.50;99.90
20345;DHT22;10330;48.816;9.278;2023-12-22T21:34:56;9.50;99.90
20345;DHT22;10330;48.816;9.278;2023-12-22T21:37:23;9.40;99.90
20345;DHT22;10330;48.816;9.278;2023-12-22T21:39:54;9.40;99.90